Time;durP1;ratioP1;P1;durP2;ratioP2;P2;SDS_P1;SDS_P2;PMS_P1;PMS_P2;Temp;Humidity;BMP_temperature;BMP_pressure;BME280_temperature;BME280_humidity;BME280_pressure;Samples;Min_cycle;Max_cycle;Signal;HPM_P1;HPM_P2
2022/08/10 00:00:43;;;;;;;0.45;0.40;;;26.00;91.00;;;;;;5074380;28;20028;-54
2022/08/10 00:03:09;;;;;;;0.30;0.30;;;26.00;91.00;;;;;;5074390;28;20032;-53
2022/08/10 00:05:35;;;;;;;0.50;0.38;;;26.10;55.40;;;;;;5074231;28;20028;-52
2022/08/10 00:08:01;;;;;;;1.08;0.35;;;;;;;;;;5074315;28;20035;-52
2022/08/10 00:10:27;;;;;;;0.40;0.40;;;26.00;91.00;;;;;;5074195;28;20463;-51
2022/08/10 00:12:53;;;;;;;1.17;0.30;;;25.80;90.80;;;;;;5073466;28;20028;-52
2022/08/10 00:15:21;;;;;;;0.40;0.35;;;26.00;56.60;;;;;;5074180;28;20039;-53
2022/08/10 00:17:47;;;;;;;0.30;0.30;;;25.80;90.80;;;;;;5073960;28;20032;-56
2022/08/10 00:20:13;;;;;;;0.47;0.30;;;26.10;56.50;;;;;;5074005;28;20035;-53
2022/08/10 00:22:39;;;;;;;1.10;0.20;;;;;;;;;;5073867;28;20044;-54
2022/08/10 00:25:06;;;;;;;0.73;0.20;;;25.90;90.50;;;;;;5074054;28;20048;-54
2022/08/10 00:27:32;;;;;;;0.60;0.20;;;;;;;;;;5073838;28;20021;-55
2022/08/10 00:29:58;;;;;;;0.43;0.30;;;;;;;;;;5073670;28;20051;-52
2022/08/10 00:32:24;;;;;;;0.82;0.30;;;;;;;;;;5073777;28;20028;-51
2022/08/10 00:34:50;;;;;;;0.35;0.22;;;;;;;;;;5073623;28;20021;-52
2022/08/10 00:37:17;;;;;;;0.93;0.38;;;26.40;56.80;;;;;;5073606;28;20095;-51
2022/08/10 00:39:44;;;;;;;0.40;0.30;;;26.20;91.00;;;;;;5073585;28;20025;-55
2022/08/10 00:42:12;;;;;;;0.75;0.38;;;26.00;90.90;;;;;;5073542;28;20032;-54
2022/08/10 00:44:42;;;;;;;0.32;0.30;;;26.00;91.00;;;;;;5073591;28;20051;-53
2022/08/10 00:47:09;;;;;;;0.47;0.30;;;26.00;54.90;;;;;;5073774;28;20043;-51
2022/08/10 00:49:35;;;;;;;0.32;0.20;;;;;;;;;;5073412;28;20427;-52
2022/08/10 00:52:02;;;;;;;1.00;0.30;;;26.10;90.90;;;;;;5073408;28;20071;-54
2022/08/10 00:54:29;;;;;;;0.40;0.30;;;26.00;56.00;;;;;;5073102;28;20037;-53
2022/08/10 00:56:55;;;;;;;0.85;0.32;;;;;;;;;;5073174;28;20052;-55
2022/08/10 00:59:21;;;;;;;0.55;0.30;;;25.90;90.90;;;;;;5073210;28;20097;-54
2022/08/10 01:01:47;;;;;;;1.00;0.28;;;;;;;;;;5073026;28;20020;-52
2022/08/10 01:04:13;;;;;;;1.27;0.40;;;26.20;91.00;;;;;;5072991;28;20063;-54
2022/08/10 01:07:00;;;;;;;0.32;0.32;;;26.20;90.90;;;;;;5073026;28;20066;-52
2022/08/10 01:09:39;;;;;;;0.32;0.30;;;25.70;90.60;;;;;;5073153;28;20635;-53
2022/08/10 01:12:13;;;;;;;0.60;0.20;;;26.00;90.80;;;;;;5073301;28;20031;-54
2022/08/10 01:15:17;;;;;;;0.40;0.30;;;26.20;90.80;;;;;;5072862;28;20025;-52
2022/08/10 01:18:02;;;;;;;0.40;0.30;;;26.00;90.80;;;;;;5072767;28;20524;-53
2022/08/10 01:21:04;;;;;;;0.40;0.28;;;25.90;51.80;;;;;;5072806;28;20544;-52
2022/08/10 01:23:56;;;;;;;0.30;0.30;;;26.00;90.90;;;;;;5072737;28;20016;-52
2022/08/10 01:26:39;;;;;;;0.30;0.30;;;25.90;90.70;;;;;;5072801;28;20029;-52
2022/08/10 01:29:40;;;;;;;0.80;0.38;;;26.30;73.00;;;;;;5072687;28;20032;-54
2022/08/10 01:32:08;;;;;;;0.30;0.20;;;26.10;56.40;;;;;;5072672;28;20388;-51
2022/08/10 01:34:53;;;;;;;1.65;0.30;;;25.90;56.20;;;;;;5072603;28;20499;-54
2022/08/10 01:37:25;;;;;;;0.52;0.30;;;26.20;90.90;;;;;;5072603;28;20074;-54
2022/08/10 01:39:58;;;;;;;0.43;0.30;;;26.10;90.70;;;;;;5072441;28;20028;-54
2022/08/10 01:42:25;;;;;;;0.30;0.30;;;25.90;55.70;;;;;;5072542;28;20028;-52
2022/08/10 01:44:55;;;;;;;0.40;0.40;;;25.90;56.20;;;;;;5072571;28;20055;-53
2022/08/10 01:50:37;;;;;;;0.80;0.32;;;25.90;56.20;;;;;;5072620;28;20094;-52
2022/08/10 01:53:12;;;;;;;1.25;0.35;;;26.20;90.90;;;;;;5071470;28;20078;-51
2022/08/10 01:55:40;;;;;;;1.08;0.40;;;25.90;53.80;;;;;;5072070;28;20041;-52
2022/08/10 01:58:07;;;;;;;1.25;0.40;;;26.20;90.80;;;;;;5072237;28;20024;-53
2022/08/10 02:00:38;;;;;;;0.60;0.50;;;26.10;90.70;;;;;;5072265;28;20024;-54
2022/08/10 02:03:06;;;;;;;0.82;0.40;;;25.70;90.70;;;;;;5072237;28;20112;-52
2022/08/10 02:05:33;;;;;;;0.57;0.20;;;25.90;90.70;;;;;;5072244;28;20044;-53
2022/08/10 02:08:01;;;;;;;1.17;0.40;;;25.90;56.10;;;;;;5072486;28;20028;-54
2022/08/10 02:10:29;;;;;;;0.20;0.20;;;26.00;90.80;;;;;;5072201;28;20487;-53
2022/08/10 02:12:57;;;;;;;0.40;0.32;;;25.80;56.10;;;;;;5072163;28;20029;-54
2022/08/10 02:15:25;;;;;;;0.88;0.32;;;25.70;56.10;;;;;;5072421;28;20402;-53
2022/08/10 02:17:55;;;;;;;0.20;0.20;;;25.80;56.30;;;;;;5072048;28;20471;-53
2022/08/10 02:20:24;;;;;;;0.20;0.20;;;25.60;76.10;;;;;;5072094;28;20052;-52
2022/08/10 02:22:57;;;;;;;0.75;0.20;;;25.50;90.60;;;;;;5072171;28;20035;-54
2022/08/10 02:25:24;;;;;;;0.43;0.30;;;25.90;56.30;;;;;;5072036;28;20166;-53
2022/08/10 02:27:51;;;;;;;0.60;0.40;;;25.70;53.40;;;;;;5072031;28;20024;-52
2022/08/10 02:30:17;;;;;;;0.57;0.40;;;;;;;;;;5072184;28;20410;-52
2022/08/10 02:32:44;;;;;;;0.50;0.30;;;25.70;56.10;;;;;;5071905;28;20493;-54
2022/08/10 02:35:12;;;;;;;0.22;0.20;;;25.70;56.00;;;;;;5073376;28;20020;-54
2022/08/10 02:37:40;;;;;;;0.35;0.30;;;25.80;53.80;;;;;;5075880;28;20104;-51
2022/08/10 02:40:07;;;;;;;0.30;0.20;;;25.80;90.60;;;;;;5076137;28;20455;-53
2022/08/10 02:42:51;;;;;;;1.42;0.20;;;25.90;71.80;;;;;;5075785;28;20111;-51
2022/08/10 02:45:22;;;;;;;1.40;0.30;;;25.50;55.80;;;;;;5075717;28;20139;-54
2022/08/10 02:47:55;;;;;;;0.30;0.30;;;26.10;90.70;;;;;;5075693;28;20466;-53
2022/08/10 02:50:26;;;;;;;0.30;0.30;;;25.80;90.60;;;;;;5075622;28;20034;-53
2022/08/10 02:53:01;;;;;;;0.82;0.30;;;25.70;56.00;;;;;;5075668;28;20077;-52
2022/08/10 02:55:48;;;;;;;0.60;0.30;;;25.20;70.50;;;;;;5075319;28;20052;-54
2022/08/10 02:58:24;;;;;;;0.65;0.47;;;25.60;55.80;;;;;;5075466;28;20028;-52
2022/08/10 03:00:55;;;;;;;0.20;0.20;;;25.60;55.90;;;;;;5075477;28;20036;-52
2022/08/10 03:03:36;;;;;;;0.68;0.30;;;25.70;55.90;;;;;;5075407;28;20032;-53
2022/08/10 03:06:10;;;;;;;0.32;0.20;;;25.30;90.50;;;;;;5075357;28;20036;-53
2022/08/10 03:08:41;;;;;;;0.47;0.45;;;25.60;56.00;;;;;;5075336;28;20398;-51
2022/08/10 03:11:12;;;;;;;0.65;0.30;;;25.60;56.00;;;;;;5075508;28;20025;-52
2022/08/10 03:13:39;;;;;;;0.47;0.30;;;;;;;;;;5075212;28;20028;-53
2022/08/10 03:16:06;;;;;;;0.20;0.20;;;25.70;56.00;;;;;;5075186;28;20016;-51
2022/08/10 03:18:33;;;;;;;0.20;0.20;;;;;;;;;;5075144;28;20028;-54
2022/08/10 03:20:59;;;;;;;0.70;0.30;;;;;;;;;;5075120;28;20112;-52
2022/08/10 03:23:26;;;;;;;1.48;0.22;;;25.50;55.90;;;;;;5075013;28;20489;-52
2022/08/10 03:25:55;;;;;;;0.43;0.30;;;25.60;56.00;;;;;;5075021;28;20059;-55
2022/08/10 03:28:23;;;;;;;0.60;0.30;;;26.00;90.70;;;;;;5074902;28;20056;-55
2022/08/10 03:30:50;;;;;;;0.30;0.30;;;25.60;56.00;;;;;;5074942;28;20027;-54
2022/08/10 03:33:16;;;;;;;0.50;0.30;;;25.50;90.50;;;;;;5074887;28;20025;-55
2022/08/10 03:35:42;;;;;;;0.28;0.28;;;;;;;;;;5074899;28;20033;-55
2022/08/10 03:38:08;;;;;;;1.23;0.30;;;;;;;;;;5074797;28;20043;-53
2022/08/10 03:40:36;;;;;;;0.20;0.20;;;25.60;55.90;;;;;;5074724;28;20067;-53
2022/08/10 03:43:06;;;;;;;0.60;0.30;;;25.50;55.90;;;;;;5074681;28;20360;-54
2022/08/10 03:45:35;;;;;;;0.25;0.25;;;25.90;90.60;;;;;;5074446;28;20029;-53
2022/08/10 03:48:03;;;;;;;0.63;0.30;;;25.60;56.00;;;;;;5073703;28;20029;-52
2022/08/10 03:50:30;;;;;;;0.63;0.30;;;25.50;55.80;;;;;;5074495;28;20103;-54
2022/08/10 03:52:57;;;;;;;0.20;0.20;;;25.30;90.50;;;;;;5074608;28;20075;-53
2022/08/10 03:55:23;;;;;;;0.30;0.30;;;25.60;55.80;;;;;;5074205;28;20076;-53
2022/08/10 03:57:49;;;;;;;0.17;0.10;;;25.60;90.60;;;;;;5074462;28;20021;-52
2022/08/10 04:00:18;;;;;;;0.65;0.40;;;25.70;83.30;;;;;;5074400;28;20036;-54
2022/08/10 04:02:47;;;;;;;0.30;0.30;;;25.50;56.00;;;;;;5074382;28;20081;-53
2022/08/10 04:05:16;;;;;;;0.30;0.20;;;25.30;55.70;;;;;;5074233;28;20047;-55
2022/08/10 04:07:43;;;;;;;0.47;0.38;;;25.80;90.70;;;;;;5074214;28;20039;-54
2022/08/10 04:10:09;;;;;;;0.40;0.28;;;25.80;88.20;;;;;;5074267;28;20031;-55
2022/08/10 04:12:34;;;;;;;0.30;0.30;;;25.70;87.40;;;;;;5074202;28;20439;-52
2022/08/10 04:15:00;;;;;;;0.65;0.40;;;;;;;;;;5074169;28;20104;-51
2022/08/10 04:17:26;;;;;;;1.23;0.25;;;;;;;;;;5074025;28;20394;-53
2022/08/10 04:19:54;;;;;;;0.60;0.20;;;25.50;55.90;;;;;;5074009;28;20112;-52
2022/08/10 04:22:24;;;;;;;0.50;0.35;;;25.20;90.50;;;;;;5074043;28;20035;-53
2022/08/10 04:24:55;;;;;;;0.50;0.20;;;25.30;90.50;;;;;;5074064;28;20029;-55
2022/08/10 04:27:21;;;;;;;0.60;0.40;;;;;;;;;;5073794;28;20025;-54
2022/08/10 04:29:49;;;;;;;0.73;0.35;;;25.60;55.30;;;;;;5073705;28;20501;-54
2022/08/10 04:32:18;;;;;;;0.50;0.35;;;25.50;55.80;;;;;;5073721;28;20028;-53
2022/08/10 04:34:44;;;;;;;0.22;0.20;;;25.10;90.50;;;;;;5073585;28;20028;-52
2022/08/10 04:37:11;;;;;;;0.30;0.30;;;;;;;;;;5073606;28;20052;-52
2022/08/10 04:39:38;;;;;;;0.50;0.30;;;;;;;;;;5073465;28;20033;-52
2022/08/10 04:42:04;;;;;;;1.27;0.40;;;25.10;90.50;;;;;;5073443;28;20398;-53
2022/08/10 04:44:31;;;;;;;0.52;0.20;;;;;;;;;;5073334;28;20037;-52
2022/08/10 04:46:57;;;;;;;0.45;0.28;;;;;;;;;;5073359;28;20029;-52
2022/08/10 04:49:23;;;;;;;0.30;0.30;;;;;;;;;;5073380;28;20074;-53
2022/08/10 04:51:49;;;;;;;0.40;0.40;;;25.70;90.70;;;;;;5073344;28;20441;-53
2022/08/10 04:54:15;;;;;;;0.52;0.40;;;;;;;;;;5073128;28;20052;-52
2022/08/10 04:56:41;;;;;;;0.30;0.20;;;;;;;;;;5073229;28;20032;-52
2022/08/10 04:59:09;;;;;;;0.45;0.38;;;25.20;55.70;;;;;;5072925;28;20089;-52
2022/08/10 05:01:36;;;;;;;0.52;0.30;;;25.40;55.80;;;;;;5073201;28;20032;-53
2022/08/10 05:04:02;;;;;;;0.50;0.25;;;25.20;74.00;;;;;;5073056;28;20040;-52
2022/08/10 05:06:27;;;;;;;0.40;0.40;;;25.10;90.60;;;;;;5073313;28;20016;-54
2022/08/10 05:08:53;;;;;;;0.50;0.40;;;;;;;;;;5073070;28;20059;-55
2022/08/10 05:11:19;;;;;;;1.95;0.40;;;25.60;90.60;;;;;;5072923;28;20028;-53
2022/08/10 05:13:45;;;;;;;0.65;0.25;;;;;;;;;;5072899;28;20443;-52
2022/08/10 05:16:11;;;;;;;0.65;0.25;;;;;;;;;;5072857;28;20427;-53
2022/08/10 05:18:36;;;;;;;0.40;0.40;;;25.10;84.20;;;;;;5072851;28;20029;-52
2022/08/10 05:21:02;;;;;;;0.30;0.30;;;;;;;;;;5072631;28;20021;-54
2022/08/10 05:23:28;;;;;;;0.90;0.50;;;;;;;;;;5072962;28;20048;-53
2022/08/10 05:25:54;;;;;;;1.48;0.30;;;;;;;;;;5072586;28;20041;-54
2022/08/10 05:28:20;;;;;;;0.20;0.20;;;;;;;;;;5072685;28;20085;-49
2022/08/10 05:30:46;;;;;;;1.50;0.30;;;;;;;;;;5072524;28;20036;-50
2022/08/10 05:33:12;;;;;;;1.55;0.63;;;;;;;;;;5072587;28;20118;-49
2022/08/10 05:35:38;;;;;;;0.85;0.20;;;;;;;;;;5072531;28;20032;-48
2022/08/10 05:38:06;;;;;;;0.52;0.40;;;25.30;56.00;;;;;;5072450;28;20040;-47
2022/08/10 05:40:34;;;;;;;0.47;0.32;;;25.30;56.10;;;;;;5072491;28;20037;-48
2022/08/10 05:42:59;;;;;;;0.30;0.30;;;25.50;90.60;;;;;;5072422;28;20025;-47
2022/08/10 05:45:26;;;;;;;0.43;0.32;;;25.30;55.70;;;;;;5072495;28;20028;-51
2022/08/10 05:47:53;;;;;;;0.47;0.30;;;25.20;90.60;;;;;;5072354;28;20029;-48
2022/08/10 05:50:22;;;;;;;0.47;0.40;;;25.30;56.00;;;;;;5072653;28;20020;-48
2022/08/10 05:52:49;;;;;;;0.40;0.30;;;;;;;;;;5072285;28;20028;-51
2022/08/10 05:55:15;;;;;;;0.40;0.30;;;;;;;;;;5072131;28;20082;-47
2022/08/10 05:57:41;;;;;;;2.38;0.50;;;;;;;;;;5072385;28;20474;-51
2022/08/10 06:00:10;;;;;;;1.27;0.40;;;25.50;69.50;;;;;;5072238;28;20086;-50
2022/08/10 06:02:42;;;;;;;1.00;0.30;;;25.30;56.00;;;;;;5072272;28;20035;-50
2022/08/10 06:05:30;;;;;;;0.40;0.40;;;25.30;51.40;;;;;;5072262;28;20029;-50
2022/08/10 06:07:56;;;;;;;0.70;0.50;;;;;;;;;;5072081;28;20463;-46
2022/08/10 06:10:23;;;;;;;2.30;0.47;;;;;;;;;;5071467;28;20086;-46
2022/08/10 06:14:59;;;;;;;1.95;0.80;;;24.80;63.90;;;;;;5072101;28;20025;-45
2022/08/10 06:15:37;;;;;;;2.17;0.40;;;24.90;90.70;;;;;;5072039;28;20046;-47
2022/08/10 06:18:04;;;;;;;0.95;0.25;;;;;;;;;;5072083;28;20017;-45
2022/08/10 06:20:30;;;;;;;3.25;0.60;;;24.90;90.80;;;;;;5072059;28;20479;-48
2022/08/10 06:22:59;;;;;;;1.85;0.50;;;24.90;90.70;;;;;;5072155;28;20013;-55
2022/08/10 06:25:26;;;;;;;1.95;0.55;;;25.30;55.20;;;;;;5071970;28;20085;-54
2022/08/10 06:27:53;;;;;;;1.42;0.60;;;25.00;90.80;;;;;;5071956;28;20375;-56
2022/08/10 06:30:20;;;;;;;0.80;0.40;;;25.30;54.80;;;;;;5071861;28;20039;-56
2022/08/10 06:32:51;;;;;;;1.67;0.50;;;25.30;90.90;;;;;;5072058;28;20111;-55
2022/08/10 06:35:18;;;;;;;3.35;0.50;;;25.30;54.10;;;;;;5071811;28;20024;-55
2022/08/10 06:37:44;;;;;;;1.65;0.75;;;24.90;90.70;;;;;;5071766;28;20046;-56
2022/08/10 06:40:11;;;;;;;4.78;0.75;;;25.30;90.90;;;;;;5071819;28;20028;-55
2022/08/10 06:42:41;;;;;;;2.92;0.52;;;25.30;56.60;;;;;;5054154;28;20025;-55
2022/08/10 06:45:13;;;;;;;0.90;0.60;;;25.30;91.00;;;;;;5071963;28;20044;-56
2022/08/10 06:48:05;;;;;;;2.10;0.50;;;25.10;90.90;;;;;;5071865;28;20033;-56
2022/08/10 06:50:38;;;;;;;0.47;0.47;;;25.00;90.80;;;;;;5071809;28;20028;-56
2022/08/10 06:53:12;;;;;;;0.75;0.40;;;25.20;56.70;;;;;;5071705;28;20062;-56
2022/08/10 06:55:43;;;;;;;1.90;0.60;;;25.50;56.80;;;;;;5071324;28;20506;-56
2022/08/10 06:58:11;;;;;;;0.82;0.40;;;25.30;56.30;;;;;;5071542;28;20029;-55
2022/08/10 07:00:41;;;;;;;1.63;0.60;;;25.00;56.20;;;;;;5071427;28;20029;-55
2022/08/10 07:03:10;;;;;;;1.60;0.40;;;25.10;71.20;;;;;;5071435;28;20028;-54
2022/08/10 07:05:41;;;;;;;3.40;0.60;;;24.90;90.60;;;;;;5071365;28;20040;-54
2022/08/10 07:08:08;;;;;;;0.50;0.50;;;25.20;56.20;;;;;;5071427;28;20036;-54
2022/08/10 07:10:35;;;;;;;1.40;0.50;;;25.20;90.90;;;;;;5071727;28;20024;-54
2022/08/10 07:13:03;;;;;;;3.00;0.52;;;25.30;56.60;;;;;;5071844;28;20020;-55
2022/08/10 07:15:29;;;;;;;3.95;0.60;;;;;;;;;;5071535;28;20413;-55
2022/08/10 07:17:56;;;;;;;1.50;0.57;;;25.10;56.20;;;;;;5071532;28;20036;-55
2022/08/10 07:20:22;;;;;;;7.10;1.67;;;;;;;;;;5071563;28;20029;-55
2022/08/10 07:22:51;;;;;;;0.40;0.40;;;25.00;90.70;;;;;;5075053;28;20134;-56
2022/08/10 07:25:21;;;;;;;6.18;0.50;;;25.20;56.70;;;;;;5074854;28;20043;-55
2022/08/10 07:27:48;;;;;;;2.10;0.60;;;25.30;55.10;;;;;;5074947;28;20024;-54
2022/08/10 07:30:15;;;;;;;4.25;0.63;;;;;;;;;;5074899;28;20443;-54
2022/08/10 07:32:43;;;;;;;1.63;0.70;;;25.30;56.90;;;;;;5074946;28;20035;-53
2022/08/10 07:35:13;;;;;;;3.75;0.50;;;25.30;56.80;;;;;;5074978;28;20027;-55
2022/08/10 07:37:41;;;;;;;3.83;0.60;;;25.40;90.90;;;;;;5073612;28;20478;-54
2022/08/10 07:40:07;;;;;;;1.05;0.50;;;22.70;55.60;;;;;;5074736;28;20032;-53
2022/08/10 07:42:36;;;;;;;0.80;0.50;;;25.50;56.70;;;;;;5074683;28;20028;-56
2022/08/10 07:45:03;;;;;;;2.03;0.60;;;25.20;54.10;;;;;;5074622;28;20037;-56
2022/08/10 07:48:01;;;;;;;3.95;0.55;;;25.00;62.20;;;;;;5074574;28;20102;-54
2022/08/10 07:50:29;;;;;;;1.30;0.35;;;25.30;57.20;;;;;;5058195;28;20051;-54
2022/08/10 07:53:16;;;;;;;0.43;0.43;;;25.30;57.00;;;;;;5074394;28;20017;-55
2022/08/10 07:55:45;;;;;;;1.13;0.47;;;25.30;56.90;;;;;;5074052;28;20063;-54
2022/08/10 07:58:11;;;;;;;0.80;0.50;;;;;;;;;;5074168;28;20025;-56
2022/08/10 08:00:37;;;;;;;3.50;0.65;;;;;;;;;;5074168;28;20025;-55
2022/08/10 08:03:06;;;;;;;1.48;0.77;;;25.60;54.80;;;;;;5074176;28;20035;-57
2022/08/10 08:05:32;;;;;;;0.80;0.47;;;;;;;;;;5074196;28;20116;-58
2022/08/10 08:08:01;;;;;;;1.83;0.57;;;25.30;56.80;;;;;;5074249;28;20031;-56
2022/08/10 08:10:28;;;;;;;1.55;0.70;;;25.20;56.70;;;;;;5074016;28;20518;-54
2022/08/10 08:12:56;;;;;;;0.80;0.60;;;25.10;90.90;;;;;;5074391;28;20543;-58
2022/08/10 08:15:23;;;;;;;2.15;0.65;;;25.60;68.60;;;;;;5074022;28;20024;-57
2022/08/10 08:17:51;;;;;;;4.13;0.60;;;25.30;57.10;;;;;;5073991;28;20028;-57
2022/08/10 08:20:19;;;;;;;1.00;0.43;;;25.30;57.20;;;;;;5073902;28;20074;-58
2022/08/10 08:22:45;;;;;;;2.70;1.02;;;25.50;56.90;;;;;;5073730;28;20013;-59
2022/08/10 08:25:14;;;;;;;1.92;0.52;;;24.90;91.00;;;;;;5073626;28;20051;-57
2022/08/10 08:27:41;;;;;;;3.95;0.73;;;25.40;57.00;;;;;;5073770;28;20035;-57
2022/08/10 08:30:08;;;;;;;2.67;0.60;;;25.60;91.10;;;;;;5055677;28;20033;-58
2022/08/10 08:32:36;;;;;;;3.90;0.77;;;25.40;57.20;;;;;;5073115;28;20050;-57
2022/08/10 08:35:06;;;;;;;2.50;0.75;;;25.40;57.20;;;;;;5073512;28;20036;-57
2022/08/10 08:37:33;;;;;;;2.90;0.70;;;25.20;57.20;;;;;;5073296;28;20028;-56
2022/08/10 08:40:05;;;;;;;3.85;0.70;;;25.30;91.10;;;;;;5073548;28;20025;-57
2022/08/10 08:43:07;;;;;;;1.58;0.55;;;24.90;68.70;;;;;;5073676;28;20025;-56
2022/08/10 08:45:59;;;;;;;4.97;1.33;;;25.70;91.00;;;;;;5073186;28;20475;-57
2022/08/10 08:48:46;;;;;;;3.15;0.70;;;25.20;53.50;;;;;;5073569;28;20064;-58
2022/08/10 08:51:26;;;;;;;1.38;0.50;;;25.90;91.20;;;;;;5073382;28;20032;-58
2022/08/10 08:54:24;;;;;;;3.42;0.80;;;25.90;91.20;;;;;;5073140;28;20024;-57
2022/08/10 08:57:21;;;;;;;1.13;0.55;;;25.90;90.70;;;;;;5001189;28;20100;-57
2022/08/10 09:00:00;;;;;;;2.58;0.70;;;25.70;57.10;;;;;;5072812;28;20029;-56
2022/08/10 09:02:31;;;;;;;3.17;0.52;;;25.40;81.70;;;;;;5072945;28;20025;-55
2022/08/10 09:05:16;;;;;;;0.93;0.50;;;26.10;91.20;;;;;;5072699;28;20059;-58
2022/08/10 09:07:42;;;;;;;2.15;0.50;;;;;;;;;;5072764;28;20024;-58
2022/08/10 09:10:28;;;;;;;5.30;0.57;;;26.20;91.10;;;;;;5072779;28;20060;-58
2022/08/10 09:13:00;;;;;;;2.47;0.30;;;26.10;91.00;;;;;;5072591;28;20046;-58
2022/08/10 09:15:28;;;;;;;1.25;0.47;;;26.00;76.80;;;;;;5072528;28;20029;-57
2022/08/10 09:18:11;;;;;;;2.15;0.80;;;25.60;90.80;;;;;;5072455;28;20054;-58
2022/08/10 09:21:02;;;;;;;1.33;0.55;;;25.40;84.20;;;;;;5072520;28;20032;-57
2022/08/10 09:23:43;;;;;;;3.60;0.70;;;26.00;56.90;;;;;;5072560;28;20032;-57
2022/08/10 09:26:30;;;;;;;2.63;0.50;;;26.10;52.40;;;;;;5072550;28;20033;-57
2022/08/10 09:29:00;;;;;;;1.88;0.60;;;26.10;56.80;;;;;;5072419;28;20029;-58
2022/08/10 09:31:31;;;;;;;3.03;0.52;;;26.00;55.70;;;;;;5072508;28;20043;-58
2022/08/10 09:34:15;;;;;;;0.80;0.40;;;25.90;78.80;;;;;;5072644;28;20025;-58
2022/08/10 09:36:49;;;;;;;2.67;0.40;;;26.20;56.50;;;;;;5072464;28;20029;-58
2022/08/10 09:39:43;;;;;;;1.77;0.57;;;26.60;53.00;;;;;;5072570;28;20111;-58
2022/08/10 09:42:17;;;;;;;0.60;0.40;;;26.10;60.60;;;;;;5072493;28;20039;-58
2022/08/10 09:44:43;;;;;;;2.15;0.60;;;;;;;;;;5071472;28;20120;-58
2022/08/10 09:47:26;;;;;;;1.38;0.60;;;26.50;90.90;;;;;;5072684;28;20100;-58
2022/08/10 09:50:00;;;;;;;1.70;0.50;;;26.00;90.70;;;;;;5072372;28;20467;-58
2022/08/10 09:53:04;;;;;;;3.05;0.57;;;26.40;52.10;;;;;;5072383;28;20039;-58
2022/08/10 09:55:56;;;;;;;1.08;0.43;;;26.20;90.80;;;;;;5072107;28;20103;-57
2022/08/10 09:58:39;;;;;;;1.20;0.50;;;26.70;60.90;;;;;;5072233;28;20032;-58
2022/08/10 10:01:05;;;;;;;1.30;0.60;;;;;;;;;;5072187;28;20039;-58
2022/08/10 10:03:40;;;;;;;1.52;0.50;;;26.50;55.90;;;;;;5072243;28;20029;-58
2022/08/10 10:06:26;;;;;;;1.20;0.60;;;26.70;55.90;;;;;;5072140;28;20043;-58
2022/08/10 10:09:05;;;;;;;1.77;0.40;;;27.20;53.40;;;;;;5072171;28;20025;-58
2022/08/10 10:12:10;;;;;;;3.53;0.57;;;26.90;84.80;;;;;;5072204;28;20024;-59
2022/08/10 10:18:05;;;;;;;3.20;0.73;;;26.70;52.00;;;;;;5072364;28;20163;-55
2022/08/10 10:20:31;;;;;;;1.17;0.50;;;;;;;;;;5071997;28;20032;-55
2022/08/10 10:23:29;;;;;;;2.40;0.80;;;27.00;82.50;;;;;;5071987;28;20147;-55
2022/08/10 10:26:13;;;;;;;2.35;0.65;;;26.60;53.50;;;;;;5071768;28;20041;-56
2022/08/10 10:28:53;;;;;;;2.33;0.60;;;26.60;54.20;;;;;;5071864;28;20029;-57
2022/08/10 10:31:27;;;;;;;4.75;0.50;;;26.90;51.60;;;;;;5071918;28;20029;-56
2022/08/10 10:33:58;;;;;;;1.98;0.60;;;26.90;51.40;;;;;;5071828;28;20071;-56
2022/08/10 10:36:27;;;;;;;4.10;0.90;;;27.10;56.00;;;;;;5071849;28;20414;-55
2022/08/10 10:38:56;;;;;;;2.03;0.80;;;27.00;56.00;;;;;;5071483;28;20099;-56
2022/08/10 10:41:39;;;;;;;3.88;0.50;;;26.70;90.80;;;;;;5053831;28;20161;-51
2022/08/10 10:44:28;;;;;;;1.15;0.60;;;27.40;90.70;;;;;;5071616;28;20035;-56
2022/08/10 10:47:05;;;;;;;3.42;0.63;;;26.70;86.90;;;;;;5071909;28;20028;-55
2022/08/10 10:49:50;;;;;;;1.83;0.50;;;27.00;90.70;;;;;;5071744;28;20088;-56
2022/08/10 10:52:53;;;;;;;4.43;0.63;;;27.00;90.80;;;;;;5071625;28;20074;-56
2022/08/10 10:55:27;;;;;;;3.50;0.60;;;27.10;56.30;;;;;;5071392;28;20036;-56
2022/08/10 10:58:21;;;;;;;2.03;0.73;;;27.10;52.00;;;;;;5075451;28;20028;-56
2022/08/10 11:01:06;;;;;;;3.25;0.75;;;27.20;61.30;;;;;;5075339;28;20086;-56
2022/08/10 11:03:51;;;;;;;3.97;0.75;;;27.20;52.10;;;;;;5075035;28;20028;-57
2022/08/10 11:06:41;;;;;;;4.53;0.82;;;27.30;52.00;;;;;;5075508;28;20032;-57
2022/08/10 11:09:22;;;;;;;5.25;1.10;;;27.60;80.60;;;;;;5075235;28;20028;-58
2022/08/10 11:11:55;;;;;;;5.53;0.70;;;27.10;90.50;;;;;;5075065;28;20021;-58
2022/08/10 11:14:47;;;;;;;6.93;0.70;;;27.60;90.70;;;;;;5075093;28;20028;-57
2022/08/10 11:17:25;;;;;;;2.97;0.35;;;26.90;90.00;;;;;;5075110;28;20012;-58
2022/08/10 11:19:58;;;;;;;5.30;0.98;;;27.30;90.50;;;;;;5075059;28;20078;-57
2022/08/10 11:22:31;;;;;;;6.20;1.15;;;27.60;90.60;;;;;;5075046;28;20643;-58
2022/08/10 11:25:26;;;;;;;7.05;0.90;;;27.30;70.50;;;;;;5074864;28;20033;-59
2022/08/10 11:28:06;;;;;;;2.72;0.82;;;27.40;90.50;;;;;;5075248;28;20052;-59
2022/08/10 11:30:50;;;;;;;;;;;27.40;52.30;;;;;;5075384;28;20044;-58
2022/08/10 11:33:24;;;;;;;6.78;1.10;;;27.70;55.90;;;;;;5074837;28;19995;-59
2022/08/10 11:36:00;;;;;;;2.15;0.65;;;27.60;51.60;;;;;;5074770;28;20028;-59
2022/08/10 11:38:34;;;;;;;4.50;1.10;;;27.50;55.60;;;;;;5074720;28;20033;-59
2022/08/10 11:41:27;;;;;;;6.43;1.00;;;27.80;52.70;;;;;;5074717;28;20029;-58
2022/08/10 11:44:07;;;;;;;3.63;0.68;;;28.00;78.40;;;;;;5074899;28;20029;-57
2022/08/10 11:46:39;;;;;;;7.53;0.80;;;27.50;55.80;;;;;;5057539;28;20507;-56
2022/08/10 11:49:42;;;;;;;5.53;0.90;;;27.60;51.60;;;;;;5074649;28;20425;-58
2022/08/10 11:52:38;;;;;;;3.35;0.93;;;28.00;90.60;;;;;;5074434;28;20028;-59
2022/08/10 11:55:14;;;;;;;5.85;1.00;;;27.60;51.60;;;;;;5074233;28;20529;-58
2022/08/10 11:57:40;;;;;;;10.00;1.00;;;27.80;55.90;;;;;;5074148;28;20386;-58
2022/08/10 12:00:07;;;;;;;4.55;1.20;;;27.30;90.60;;;;;;5074528;28;20433;-59
2022/08/10 12:02:43;;;;;;;8.93;1.08;;;27.70;52.30;;;;;;5074231;28;20029;-61
2022/08/10 12:05:15;;;;;;;8.43;0.90;;;27.40;90.30;;;;;;5074106;28;20093;-58
2022/08/10 12:07:45;;;;;;;9.15;1.45;;;27.60;55.90;;;;;;5073054;28;20356;-60
2022/08/10 12:10:13;;;;;;;3.70;1.25;;;27.60;55.80;;;;;;5073837;28;20024;-60
2022/08/10 12:13:17;;;;;;;5.85;1.15;;;27.60;58.00;;;;;;5073926;28;20154;-59
2022/08/10 12:15:54;;;;;;;4.25;0.88;;;27.90;55.60;;;;;;5073175;28;20407;-60
2022/08/10 12:18:51;;;;;;;2.10;0.90;;;27.80;51.40;;;;;;5073862;28;20463;-60
2022/08/10 12:21:30;;;;;;;3.33;0.80;;;27.80;51.30;;;;;;5074238;28;20034;-60
2022/08/10 12:24:01;;;;;;;4.18;1.48;;;27.50;90.10;;;;;;5073777;28;20363;-59
2022/08/10 12:26:45;;;;;;;2.40;0.88;;;27.50;88.40;;;;;;5073775;28;20112;-60
2022/08/10 12:29:30;;;;;;;3.22;0.88;;;28.10;63.30;;;;;;5073731;28;20033;-60
2022/08/10 12:32:23;;;;;;;3.40;0.95;;;27.50;54.10;;;;;;5073798;28;20099;-45
2022/08/10 12:35:00;;;;;;;2.08;0.73;;;27.80;55.10;;;;;;5073573;28;20029;-46
2022/08/10 12:37:32;;;;;;;2.05;0.80;;;27.80;90.10;;;;;;5073455;28;20032;-45
2022/08/10 12:40:03;;;;;;;4.13;0.82;;;27.50;90.00;;;;;;5073760;28;20029;-45
2022/08/10 12:42:35;;;;;;;3.15;1.10;;;27.90;55.00;;;;;;5073349;28;20434;-45
2022/08/10 12:45:11;;;;;;;3.03;0.80;;;27.80;54.80;;;;;;5073219;28;20036;-45
2022/08/10 12:47:53;;;;;;;4.57;0.95;;;28.10;90.00;;;;;;5056447;28;20044;-45
2022/08/10 12:50:25;;;;;;;2.50;0.80;;;27.80;54.50;;;;;;5073346;28;20082;-45
2022/08/10 12:52:51;;;;;;;2.30;1.08;;;;;;;;;;5073194;28;20379;-45
2022/08/10 12:55:18;;;;;;;3.10;0.90;;;28.00;54.10;;;;;;5071621;28;20068;-45
2022/08/10 12:57:51;;;;;;;2.03;0.80;;;28.00;53.90;;;;;;5073073;28;20024;-45
2022/08/10 13:00:17;;;;;;;2.95;0.60;;;28.00;55.60;;;;;;5073062;28;20024;-45
2022/08/10 13:02:44;;;;;;;4.30;0.90;;;28.00;53.80;;;;;;5073263;28;20059;-45
2022/08/10 13:05:12;;;;;;;2.38;0.70;;;27.90;88.90;;;;;;5072933;28;20037;-45
2022/08/10 13:07:41;;;;;;;1.50;1.02;;;28.00;53.30;;;;;;5073087;28;20360;-44
2022/08/10 13:10:10;;;;;;;11.35;1.33;;;27.90;50.70;;;;;;5072949;28;20036;-45
2022/08/10 13:12:38;;;;;;;3.30;0.93;;;27.40;85.10;;;;;;5072924;28;20047;-45
2022/08/10 13:15:09;;;;;;;2.20;0.90;;;27.30;49.00;;;;;;5072786;28;20021;-43
2022/08/10 13:17:36;;;;;;;;;;;27.30;49.30;;;;;;5073741;28;20494;-47
2022/08/10 13:20:25;;;;;;;2.20;0.88;;;27.20;85.50;;;;;;5072782;28;19957;-45
2022/08/10 13:22:56;;;;;;;3.35;1.20;;;26.40;53.60;;;;;;5072204;28;20403;-44
2022/08/10 13:25:30;;;;;;;2.03;0.95;;;26.10;49.70;;;;;;5072584;28;20085;-44
2022/08/10 13:28:00;;;;;;;1.83;1.10;;;26.10;85.60;;;;;;5072781;28;20027;-44
2022/08/10 13:30:27;;;;;;;3.25;1.38;;;25.40;91.10;;;;;;5072658;28;20546;-43
2022/08/10 13:32:54;;;;;;;2.95;1.00;;;;;;;;;;5072922;28;20023;-43
2022/08/10 13:35:21;;;;;;;3.90;0.80;;;25.40;91.20;;;;;;5072404;28;20028;-44
2022/08/10 13:37:51;;;;;;;2.13;0.77;;;26.00;58.20;;;;;;5072389;28;20116;-45
2022/08/10 13:40:19;;;;;;;2.05;1.02;;;26.00;56.00;;;;;;5072390;28;20020;-44